Time;durP1;ratioP1;P1;durP2;ratioP2;P2;SDS_P1;SDS_P2;PMS_P1;PMS_P2;Temp;Humidity;BMP_temperature;BMP_pressure;BME280_temperature;BME280_humidity;BME280_pressure;Samples;Min_cycle;Max_cycle;Signal;HPM_P1;HPM_P2
2021/01/23 00:00:13;;;;;;;7.72;5.43;;;;;;;7.71;100.00;96221.78;5096863;28;20015;-76
2021/01/23 00:02:39;;;;;;;8.30;4.85;;;;;;;7.75;100.00;96220.03;5100620;28;20068;-77
2021/01/23 00:05:05;;;;;;;8.10;6.13;;;;;;;7.72;100.00;96204.34;5101777;28;20024;-76
2021/01/23 00:07:31;;;;;;;3.78;3.30;;;;;;;7.70;100.00;96212.03;5096612;28;20029;-79
2021/01/23 00:09:56;;;;;;;4.43;3.08;;;;;;;7.75;100.00;96209.94;5100800;28;20412;-74
2021/01/23 00:12:22;;;;;;;3.72;3.15;;;;;;;7.79;100.00;96207.38;5099293;28;20023;-76
2021/01/23 00:14:47;;;;;;;3.42;2.33;;;;;;;7.77;100.00;96191.38;5098153;28;20019;-75
2021/01/23 00:17:13;;;;;;;7.57;4.10;;;;;;;7.76;100.00;96183.53;5098253;28;21585;-74
2021/01/23 00:19:38;;;;;;;39.45;25.90;;;;;;;7.82;100.00;96179.53;5099398;28;20028;-75
2021/01/23 00:22:04;;;;;;;26.77;19.58;;;;;;;7.81;100.00;96186.88;5097403;28;20019;-74
2021/01/23 00:24:29;;;;;;;22.05;13.88;;;;;;;7.76;100.00;96188.97;5100053;28;20142;-76
2021/01/23 00:26:54;;;;;;;11.82;8.15;;;;;;;7.71;100.00;96192.66;5096148;28;20088;-75
2021/01/23 00:29:20;;;;;;;7.57;5.30;;;;;;;7.69;100.00;96183.22;5102269;28;20039;-75
2021/01/23 00:31:45;;;;;;;8.10;4.82;;;;;;;7.72;100.00;96175.22;5100304;28;20039;-75
2021/01/23 00:34:11;;;;;;;6.30;5.28;;;;;;;7.67;100.00;96164.50;5103476;28;20058;-74
2021/01/23 00:36:37;;;;;;;6.00;3.78;;;;;;;7.71;100.00;96175.53;5101426;28;20020;-75
2021/01/23 00:39:04;;;;;;;6.85;4.50;;;;;;;7.62;100.00;96177.44;5102976;28;20030;-74
2021/01/23 00:41:30;;;;;;;8.55;4.70;;;;;;;7.57;100.00;96169.44;5101220;28;20012;-74
2021/01/23 00:43:56;;;;;;;7.28;4.20;;;;;;;7.62;100.00;96175.53;5098635;28;20385;-75
2021/01/23 00:46:21;;;;;;;6.30;3.83;;;;;;;7.68;100.00;96181.59;5092141;28;20020;-75
2021/01/23 00:48:48;;;;;;;4.43;3.13;;;;;;;7.66;100.00;96200.19;5092032;28;20027;-75
2021/01/23 00:51:13;;;;;;;4.32;3.55;;;;;;;7.73;100.00;96206.75;5092091;28;20046;-75
2021/01/23 00:53:39;;;;;;;6.05;4.15;;;;;;;7.65;100.00;96187.69;5093595;28;20032;-74
2021/01/23 00:56:04;;;;;;;5.85;3.10;;;;;;;7.73;100.00;96184.97;5093002;28;20020;-75
2021/01/23 00:58:30;;;;;;;6.10;3.65;;;;;;;7.66;100.00;96183.84;5091788;28;20032;-75
2021/01/23 01:00:55;;;;;;;6.53;3.88;;;;;;;7.72;100.00;96188.81;5092445;28;20020;-73
2021/01/23 01:03:21;;;;;;;5.05;3.60;;;;;;;7.74;100.00;96202.09;5093221;28;20443;-77
2021/01/23 01:05:46;;;;;;;3.40;3.10;;;;;;;7.73;100.00;96211.38;5093275;28;20105;-74
2021/01/23 01:08:11;;;;;;;4.93;3.15;;;;;;;7.80;100.00;96217.94;5092560;28;20024;-74
2021/01/23 01:10:37;;;;;;;3.95;2.85;;;;;;;7.71;100.00;96229.94;5090699;28;20032;-75
2021/01/23 01:13:02;;;;;;;4.63;3.03;;;;;;;7.76;100.00;96237.97;5091537;28;20020;-75
2021/01/23 01:15:28;;;;;;;5.30;3.10;;;;;;;7.78;100.00;96216.66;5092798;28;20046;-74
2021/01/23 01:17:53;;;;;;;8.25;3.38;;;;;;;7.73;100.00;96201.31;5106456;28;20032;-75
2021/01/23 01:20:18;;;;;;;4.82;2.70;;;;;;;7.75;100.00;96174.56;5091127;28;20024;-74
2021/01/23 01:22:44;;;;;;;5.55;3.22;;;;;;;7.70;100.00;96166.56;5091232;28;20135;-74
2021/01/23 01:25:09;;;;;;;3.97;2.95;;;;;;;7.64;100.00;96173.31;5091256;28;20051;-75
2021/01/23 01:27:35;;;;;;;4.40;2.92;;;;;;;7.71;100.00;96175.53;5092621;28;20020;-75
2021/01/23 01:30:00;;;;;;;2.53;2.33;;;;;;;7.69;100.00;96162.25;5091287;28;20058;-74
2021/01/23 01:32:26;;;;;;;6.53;3.15;;;;;;;7.69;100.00;96166.88;5092024;28;20054;-76
2021/01/23 01:34:51;;;;;;;3.85;2.20;;;;;;;7.67;100.00;96163.69;5093017;28;20051;-74
2021/01/23 01:37:16;;;;;;;5.05;2.55;;;;;;;7.62;100.00;96152.97;5092972;28;20016;-73
2021/01/23 01:39:42;;;;;;;3.00;1.95;;;;;;;7.69;100.00;96156.00;5090237;28;20031;-75
2021/01/23 01:42:07;;;;;;;3.13;2.00;;;;;;;7.73;100.00;96186.91;5091376;28;20031;-75
2021/01/23 01:44:33;;;;;;;5.50;3.00;;;;;;;7.72;100.00;96196.97;5091206;28;20020;-75
2021/01/23 01:47:02;;;;;;;4.63;3.40;;;;;;;7.67;100.00;96174.56;5092670;28;20031;-75
2021/01/23 01:49:29;;;;;;;5.22;3.13;;;;;;;7.67;100.00;96148.19;5090836;28;20073;-77
2021/01/23 01:51:56;;;;;;;3.97;2.47;;;;;;;7.62;100.00;96156.47;5090925;28;20028;-76
2021/01/23 01:54:25;;;;;;;13.15;6.88;;;;;;;7.58;100.00;96149.28;5092205;28;20489;-75
2021/01/23 01:56:54;;;;;;;8.20;4.43;;;;;;;7.65;100.00;96130.53;5092134;28;20051;-76
2021/01/23 01:59:19;;;;;;;10.50;2.67;;;;;;;7.70;100.00;96144.00;5085947;28;20463;-75
2021/01/23 02:01:45;;;;;;;3.13;2.67;;;;;;;7.67;100.00;96140.00;5091660;28;20016;-75
2021/01/23 02:04:43;;;;;;;10.43;5.35;;;;;;;7.69;100.00;96150.56;5090246;28;20032;-86
2021/01/23 02:07:28;;;;;;;4.43;3.42;;;;;;;7.63;100.00;96147.22;5090801;28;20026;-77
2021/01/23 02:10:27;;;;;;;4.35;3.10;;;;;;;7.63;100.00;96144.47;5090685;28;20035;-76
2021/01/23 02:13:04;;;;;;;8.55;3.45;;;;;;;7.64;100.00;96137.94;5088902;28;20409;-78
2021/01/23 02:15:35;;;;;;;4.97;2.75;;;;;;;7.63;100.00;96125.44;5092389;28;20062;-75
2021/01/23 02:18:13;;;;;;;7.13;2.63;;;;;;;7.61;100.00;96127.69;5092011;28;20552;-76
2021/01/23 02:21:09;;;;;;;10.38;3.80;;;;;;;7.62;100.00;96123.84;5090388;28;20028;-75
2021/01/23 02:23:38;;;;;;;4.43;3.00;;;;;;;7.61;100.00;96121.44;5091770;28;20059;-79
2021/01/23 02:26:09;;;;;;;2.70;2.08;;;;;;;7.58;100.00;96139.19;5107266;28;20414;-74
2021/01/23 02:28:54;;;;;;;3.83;2.25;;;;;;;7.55;100.00;96124.31;5090420;28;20069;-74
2021/01/23 02:31:21;;;;;;;5.13;2.65;;;;;;;7.58;100.00;96122.88;5090826;28;20039;-77
2021/01/23 02:33:49;;;;;;;5.15;2.95;;;;;;;7.59;100.00;96135.34;5090340;28;20024;-75
2021/01/23 02:36:16;;;;;;;7.78;3.80;;;;;;;7.47;100.00;96119.69;5090205;28;20027;-75
2021/01/23 02:38:44;;;;;;;8.73;5.68;;;;;;;7.51;100.00;96131.53;5091509;28;20058;-75
2021/01/23 02:41:10;;;;;;;6.53;5.43;;;;;;;7.49;100.00;96119.34;5106742;28;20036;-75
2021/01/23 02:43:42;;;;;;;11.05;5.93;;;;;;;7.38;100.00;96099.06;5091587;28;20027;-76
2021/01/23 02:46:12;;;;;;;7.90;4.88;;;;;;;7.36;100.00;96104.78;5091547;28;20046;-75
2021/01/23 02:48:38;;;;;;;10.48;4.13;;;;;;;7.28;100.00;96092.00;5089952;28;20109;-79
2021/01/23 02:51:11;;;;;;;6.38;4.47;;;;;;;7.39;100.00;96097.94;5090837;28;20040;-77
2021/01/23 02:53:39;;;;;;;8.32;4.68;;;;;;;7.37;100.00;96095.53;5090081;28;20075;-80
2021/01/23 02:56:14;;;;;;;7.05;4.25;;;;;;;7.37;100.00;96100.16;5089733;28;20031;-76
2021/01/23 02:58:42;;;;;;;6.05;3.95;;;;;;;7.27;100.00;96095.03;5091362;28;20085;-76
2021/01/23 03:01:08;;;;;;;6.60;4.13;;;;;;;7.21;100.00;96064.50;5106407;28;20054;-75
2021/01/23 03:03:35;;;;;;;7.65;4.90;;;;;;;7.28;100.00;96070.25;5092272;28;20389;-75
2021/01/23 03:06:04;;;;;;;6.82;3.92;;;;;;;7.23;100.00;96073.16;5091509;28;20024;-75
2021/01/23 03:08:30;;;;;;;5.38;3.45;;;;;;;7.22;100.00;96076.97;5092080;28;20032;-79
2021/01/23 03:10:56;;;;;;;12.93;3.78;;;;;;;7.11;100.00;96083.06;5092018;28;20092;-75
2021/01/23 03:13:21;;;;;;;5.93;3.17;;;;;;;7.10;100.00;96093.13;5091912;28;20060;-75
2021/01/23 03:15:47;;;;;;;3.10;2.50;;;;;;;7.12;100.00;96077.28;5090241;28;20111;-77
2021/01/23 03:18:12;;;;;;;4.53;2.10;;;;;;;7.06;100.00;96067.69;5091844;28;20056;-76
2021/01/23 03:20:38;;;;;;;2.85;2.08;;;;;;;7.07;100.00;96061.16;5091951;28;20053;-76
2021/01/23 03:23:04;;;;;;;2.03;1.77;;;;;;;7.11;100.00;96078.41;5091153;28;20016;-75
2021/01/23 03:25:30;;;;;;;2.97;1.83;;;;;;;7.11;100.00;96064.81;5092088;28;20142;-76
2021/01/23 03:27:56;;;;;;;2.55;2.35;;;;;;;7.04;100.00;96047.41;5092940;28;20034;-76
2021/01/23 03:30:22;;;;;;;2.22;1.77;;;;;;;7.05;100.00;96082.41;5094150;28;20162;-76
2021/01/23 03:32:49;;;;;;;2.97;2.08;;;;;;;7.06;100.00;96069.59;5093361;28;20463;-78
2021/01/23 03:35:15;;;;;;;3.25;2.25;;;;;;;6.99;100.00;96054.59;5094088;28;20012;-77
2021/01/23 03:37:40;;;;;;;3.30;1.83;;;;;;;7.09;100.00;96061.63;5091296;28;20034;-78
2021/01/23 03:40:07;;;;;;;2.38;1.63;;;;;;;7.04;100.00;96058.28;5090741;28;20469;-79
2021/01/23 03:42:33;;;;;;;2.53;1.60;;;;;;;6.96;100.00;96046.25;5090768;28;20485;-78
2021/01/23 03:44:59;;;;;;;2.83;1.20;;;;;;;7.00;100.00;96058.09;5090569;28;20029;-75
2021/01/23 03:47:25;;;;;;;1.73;1.25;;;;;;;6.94;100.00;96029.47;5089383;28;20533;-75
2021/01/23 03:49:50;;;;;;;3.53;1.40;;;;;;;6.93;100.00;96036.03;5088934;28;20035;-76
2021/01/23 03:52:15;;;;;;;1.80;1.48;;;;;;;6.95;100.00;96034.59;5090458;28;20036;-75
2021/01/23 03:54:42;;;;;;;2.97;1.25;;;;;;;6.98;100.00;96035.88;5089121;28;20024;-75
2021/01/23 03:57:08;;;;;;;1.42;1.15;;;;;;;6.98;100.00;96038.59;5090311;28;20030;-76
2021/01/23 03:59:34;;;;;;;1.63;1.05;;;;;;;6.93;100.00;96000.69;5105867;28;20114;-75
2021/01/23 04:02:00;;;;;;;1.02;0.90;;;;;;;7.10;100.00;96036.03;5107823;28;20142;-74
2021/01/23 04:04:26;;;;;;;1.13;1.02;;;;;;;7.08;100.00;96026.63;5097496;28;20143;-74
2021/01/23 04:06:51;;;;;;;5.05;1.60;;;;;;;7.02;100.00;95993.34;5096787;28;20095;-73
2021/01/23 04:09:16;;;;;;;1.80;1.40;;;;;;;6.96;100.00;95997.34;5113869;28;20042;-75
2021/01/23 04:11:42;;;;;;;2.45;1.55;;;;;;;7.08;100.00;96016.53;5112787;28;20027;-74
2021/01/23 04:14:07;;;;;;;2.33;1.45;;;;;;;7.11;100.00;95994.13;5114021;28;20023;-74
2021/01/23 04:16:33;;;;;;;2.45;1.25;;;;;;;7.08;100.00;96000.22;5112755;28;20061;-73
2021/01/23 04:18:58;;;;;;;5.00;1.95;;;;;;;6.96;100.00;95979.13;5110106;28;20019;-75
2021/01/23 04:21:24;;;;;;;2.13;1.63;;;;;;;6.93;100.00;95977.06;5109562;28;20024;-75
2021/01/23 04:23:49;;;;;;;2.85;1.90;;;;;;;6.96;100.00;95995.44;5092555;28;20028;-74
2021/01/23 04:26:15;;;;;;;2.53;1.45;;;;;;;6.90;100.00;95987.75;5093460;28;20048;-73
2021/01/23 04:28:40;;;;;;;1.80;1.45;;;;;;;7.06;100.00;96001.66;5092229;28;20077;-75
2021/01/23 04:31:05;;;;;;;1.38;1.27;;;;;;;7.03;100.00;95992.22;5093642;28;20028;-75
2021/01/23 04:33:32;;;;;;;4.60;1.48;;;;;;;7.12;100.00;96022.91;5092612;28;20032;-73
2021/01/23 04:35:57;;;;;;;1.48;1.30;;;;;;;7.09;100.00;96037.16;5093751;28;20076;-75
2021/01/23 04:38:22;;;;;;;2.03;1.33;;;;;;;7.03;100.00;96035.72;5109093;28;20470;-73
2021/01/23 04:40:48;;;;;;;4.32;2.15;;;;;;;6.99;100.00;96019.25;5109358;28;20035;-74
2021/01/23 04:43:13;;;;;;;4.68;1.90;;;;;;;6.98;100.00;96023.06;5093772;28;20028;-77
2021/01/23 04:45:39;;;;;;;3.20;2.85;;;;;;;7.10;100.00;96044.19;5093766;28;20024;-74
2021/01/23 04:48:05;;;;;;;2.38;1.80;;;;;;;6.99;100.00;96045.63;5093228;28;20025;-75
2021/01/23 04:50:30;;;;;;;6.65;2.03;;;;;;;6.97;100.00;96061.47;5104543;28;20028;-74
2021/01/23 04:52:56;;;;;;;3.05;2.38;;;;;;;6.92;100.00;96035.22;5113969;28;20107;-75
2021/01/23 04:55:21;;;;;;;6.18;2.50;;;;;;;7.02;100.00;96012.38;5111753;28;20175;-74
2021/01/23 04:57:47;;;;;;;6.65;2.38;;;;;;;6.97;100.00;96010.63;5113418;28;20019;-74
2021/01/23 05:00:13;;;;;;;2.25;1.98;;;;;;;7.03;100.00;96013.97;5099366;28;20038;-74
2021/01/23 05:02:39;;;;;;;2.50;2.10;;;;;;;6.89;100.00;95999.75;5092332;28;20464;-74
2021/01/23 05:05:06;;;;;;;2.70;2.05;;;;;;;7.04;100.00;96004.72;5092861;28;20024;-74
2021/01/23 05:07:34;;;;;;;2.78;1.90;;;;;;;7.13;100.00;96012.84;5093003;28;20023;-75
2021/01/23 05:10:12;;;;;;;2.25;1.52;;;;;;;7.13;100.00;96013.66;5092908;28;20074;-75
2021/01/23 05:12:40;;;;;;;2.42;1.90;;;;;;;7.04;100.00;96002.00;5091626;28;20024;-74
2021/01/23 05:15:08;;;;;;;3.45;2.72;;;;;;;7.11;100.00;96017.81;5092272;28;20028;-74
2021/01/23 05:17:46;;;;;;;3.55;1.75;;;;;;;7.10;100.00;96014.31;5093616;28;20016;-74
2021/01/23 05:20:14;;;;;;;3.60;2.47;;;;;;;7.11;100.00;96015.88;5092909;28;20106;-74
2021/01/23 05:22:49;;;;;;;2.28;1.98;;;;;;;7.04;100.00;96009.34;5091700;28;20093;-74
2021/01/23 05:25:14;;;;;;;2.67;1.80;;;;;;;7.05;100.00;95991.94;5092828;28;20500;-74
2021/01/23 05:27:46;;;;;;;1.98;1.83;;;;;;;7.02;100.00;95989.84;5091409;28;20030;-74
2021/01/23 05:30:13;;;;;;;3.03;2.30;;;;;;;7.07;100.00;95995.91;5091285;28;20027;-74
2021/01/23 05:32:39;;;;;;;2.50;1.77;;;;;;;6.99;100.00;96007.56;5092985;28;20520;-74
2021/01/23 05:35:15;;;;;;;4.85;2.13;;;;;;;6.96;100.00;95995.44;5091482;28;20107;-74
2021/01/23 05:37:40;;;;;;;2.80;1.73;;;;;;;6.90;100.00;95988.56;5091197;28;20035;-73
2021/01/23 05:40:07;;;;;;;2.10;1.80;;;;;;;6.89;100.00;96013.34;5092228;28;20024;-74
2021/01/23 05:42:43;;;;;;;5.75;2.42;;;;;;;6.84;100.00;95999.91;5090838;28;20384;-74
2021/01/23 05:45:13;;;;;;;3.38;2.33;;;;;;;6.98;100.00;96016.88;5090552;28;20107;-74
2021/01/23 05:47:40;;;;;;;3.75;2.22;;;;;;;6.88;100.00;96007.13;5091227;28;20088;-75
2021/01/23 05:50:07;;;;;;;2.00;1.67;;;;;;;6.97;100.00;96026.13;5092517;28;20023;-75
2021/01/23 05:52:33;;;;;;;3.00;2.80;;;;;;;6.85;100.00;96012.38;5092614;28;20020;-74
2021/01/23 05:55:00;;;;;;;4.65;2.20;;;;;;;6.80;100.00;96009.81;5092530;28;20028;-74
2021/01/23 05:57:27;;;;;;;2.65;2.33;;;;;;;6.80;100.00;96016.03;5092455;28;20389;-77
2021/01/23 05:59:55;;;;;;;4.45;2.78;;;;;;;6.79;100.00;96014.47;5091063;28;20036;-79
2021/01/23 06:02:22;;;;;;;6.30;2.80;;;;;;;6.74;100.00;96017.31;5092446;28;20103;-74
2021/01/23 06:04:52;;;;;;;7.75;2.63;;;;;;;6.74;100.00;96017.31;5092298;28;20024;-76
2021/01/23 06:07:46;;;;;;;3.92;2.88;;;;;;;6.73;100.00;96023.88;5090754;28;20024;-75
2021/01/23 06:10:21;;;;;;;13.18;5.80;;;;;;;6.76;100.00;96003.44;5090458;28;20049;-74
2021/01/23 06:12:47;;;;;;;7.13;3.80;;;;;;;6.70;100.00;96015.56;5090834;28;20560;-75
2021/01/23 06:15:31;;;;;;;38.33;17.98;;;;;;;6.80;100.00;96026.09;5090641;28;20119;-74
2021/01/23 06:17:56;;;;;;;9.77;4.70;;;;;;;6.75;100.00;96035.22;5090566;28;20035;-75
2021/01/23 06:20:40;;;;;;;4.72;3.28;;;;;;;6.82;100.00;96013.81;5090705;28;20028;-76
2021/01/23 06:23:09;;;;;;;9.20;5.53;;;;;;;6.79;100.00;96029.97;5092072;28;20448;-75
2021/01/23 06:25:50;;;;;;;18.08;8.20;;;;;;;6.83;100.00;96025.47;5089740;28;20381;-75
2021/01/23 06:28:21;;;;;;;10.25;5.15;;;;;;;6.81;100.00;96027.72;5091687;28;20028;-76
2021/01/23 06:30:50;;;;;;;3.05;2.33;;;;;;;6.81;100.00;96038.59;5091522;28;20031;-74
2021/01/23 06:33:21;;;;;;;4.45;2.70;;;;;;;6.79;100.00;96035.41;5092063;28;20028;-75
2021/01/23 06:36:05;;;;;;;5.95;3.33;;;;;;;6.72;100.00;96026.91;5089854;28;20599;-75
2021/01/23 06:38:32;;;;;;;2.65;2.35;;;;;;;6.67;100.00;96046.09;5090413;28;20165;-74
2021/01/23 06:41:22;;;;;;;6.18;4.20;;;;;;;6.66;100.00;96049.91;5090806;28;20032;-74
2021/01/23 06:44:06;;;;;;;6.35;4.57;;;;;;;6.65;100.00;96038.25;5090665;28;20036;-73
2021/01/23 06:46:40;;;;;;;3.65;2.92;;;;;;;6.63;100.00;96018.75;5092357;28;20035;-74
2021/01/23 06:49:14;;;;;;;5.53;3.00;;;;;;;6.53;100.00;96016.34;5091811;28;20050;-73
2021/01/23 06:51:40;;;;;;;7.07;2.88;;;;;;;6.58;100.00;96043.34;5093830;28;20016;-75
2021/01/23 06:54:12;;;;;;;4.68;3.03;;;;;;;6.63;100.00;96047.84;5093141;28;20067;-74
2021/01/23 06:56:40;;;;;;;5.25;4.05;;;;;;;6.54;100.00;96011.72;5098768;28;20032;-74
2021/01/23 06:59:05;;;;;;;9.73;2.80;;;;;;;6.56;100.00;96026.56;5090077;28;20038;-75
2021/01/23 07:01:31;;;;;;;7.80;4.72;;;;;;;6.62;100.00;96038.06;5109144;28;20091;-74
2021/01/23 07:03:56;;;;;;;5.90;4.22;;;;;;;6.61;100.00;96033.78;5112172;28;20023;-74
2021/01/23 07:06:29;;;;;;;;;;;;;;;6.75;100.00;96029.78;5112636;28;20027;-74
2021/01/23 07:08:54;;;;;;;7.40;3.13;;;;;;;6.76;100.00;96042.28;5111095;28;19911;-73
2021/01/23 07:11:21;;;;;;;4.00;2.75;;;;;;;6.82;100.00;96030.13;5113240;28;20477;-76
2021/01/23 07:14:03;;;;;;;6.10;3.80;;;;;;;6.88;100.00;96038.91;5093915;28;20063;-75
2021/01/23 07:16:30;;;;;;;4.45;2.97;;;;;;;6.81;100.00;96046.72;5092637;28;20024;-76
2021/01/23 07:19:01;;;;;;;3.97;3.00;;;;;;;6.86;100.00;96060.19;5108165;28;20028;-75
2021/01/23 07:21:30;;;;;;;4.80;3.00;;;;;;;6.85;100.00;96066.72;5096901;28;20039;-74
2021/01/23 07:23:56;;;;;;;4.10;2.92;;;;;;;6.88;100.00;96060.66;5096784;28;20051;-74
2021/01/23 07:26:23;;;;;;;3.53;3.22;;;;;;;6.83;100.00;96053.44;5095715;28;20054;-74
2021/01/23 07:29:07;;;;;;;3.53;2.90;;;;;;;6.73;100.00;96033.94;5097680;28;20062;-92
2021/01/23 07:34:18;;;;;;;7.65;4.13;;;;;;;6.65;100.00;96013.81;5056908;23;20038;-88
2021/01/23 07:36:45;;;;;;;6.57;3.92;;;;;;;6.88;100.00;96045.16;5027465;28;20112;-76
2021/01/23 07:39:16;;;;;;;9.38;5.68;;;;;;;6.79;100.00;96054.41;5040082;28;20097;-74
2021/01/23 07:41:47;;;;;;;6.25;3.78;;;;;;;6.89;100.00;96056.84;5038188;28;20101;-75
2021/01/23 07:44:13;;;;;;;6.45;4.07;;;;;;;6.78;100.00;96031.06;5016062;28;20022;-74
2021/01/23 07:46:42;;;;;;;5.60;5.00;;;;;;;6.79;100.00;96046.25;5018508;28;20022;-74
2021/01/23 07:49:10;;;;;;;5.40;4.90;;;;;;;6.88;100.00;96063.38;5008115;28;20398;-75
2021/01/23 07:51:36;;;;;;;10.00;4.05;;;;;;;6.94;100.00;96081.13;5035192;28;20022;-74
2021/01/23 07:54:11;;;;;;;12.00;5.03;;;;;;;6.84;100.00;96082.22;5034326;28;20063;-76
2021/01/23 07:56:49;;;;;;;6.18;4.55;;;;;;;6.82;100.00;96072.78;5034357;28;20125;-74
2021/01/23 07:59:14;;;;;;;6.78;5.97;;;;;;;6.89;100.00;96078.56;5034047;28;20061;-75
2021/01/23 08:01:39;;;;;;;12.60;6.78;;;;;;;6.80;100.00;96047.84;5016310;28;20514;-74
2021/01/23 08:04:05;;;;;;;9.55;5.15;;;;;;;6.87;100.00;96053.63;5016712;28;20547;-75
2021/01/23 08:06:30;;;;;;;9.82;4.88;;;;;;;6.73;100.00;96042.09;5034006;28;20032;-74
2021/01/23 08:08:56;;;;;;;8.98;3.75;;;;;;;6.69;100.00;96049.28;5033935;28;20029;-76
2021/01/23 08:11:41;;;;;;;9.65;5.35;;;;;;;6.79;100.00;96074.25;5033645;28;20030;-75
2021/01/23 08:14:16;;;;;;;9.57;4.18;;;;;;;6.80;100.00;96064.94;5016351;28;20437;-75
2021/01/23 08:16:52;;;;;;;11.13;4.65;;;;;;;6.83;100.00;96067.03;5016322;28;20032;-73
2021/01/23 08:19:18;;;;;;;6.72;4.55;;;;;;;6.85;100.00;96078.41;5016242;28;20025;-74
2021/01/23 08:21:43;;;;;;;7.55;3.60;;;;;;;6.91;100.00;96089.91;5015536;28;20465;-77
2021/01/23 08:24:28;;;;;;;6.53;4.45;;;;;;;6.88;100.00;96082.41;5033521;28;20044;-75
2021/01/23 08:26:59;;;;;;;6.70;4.95;;;;;;;6.91;100.00;96100.78;5015857;28;20029;-75
2021/01/23 08:29:24;;;;;;;8.88;5.72;;;;;;;6.97;100.00;96094.06;5015887;28;20091;-73
2021/01/23 08:32:00;;;;;;;6.47;4.75;;;;;;;6.96;100.00;96100.63;5015225;28;20422;-73
2021/01/23 08:34:25;;;;;;;11.15;6.65;;;;;;;6.94;100.00;96106.38;5016247;28;20044;-73
2021/01/23 08:36:51;;;;;;;8.23;4.35;;;;;;;6.97;100.00;96097.59;5033443;28;20480;-74
2021/01/23 08:39:16;;;;;;;8.55;4.38;;;;;;;7.07;100.00;96112.78;5033202;28;20025;-75
2021/01/23 08:41:42;;;;;;;7.70;5.30;;;;;;;7.02;100.00;96093.91;5032965;28;20029;-74
2021/01/23 08:44:07;;;;;;;6.47;4.20;;;;;;;7.07;100.00;96096.50;5033528;28;20426;-76
2021/01/23 08:46:33;;;;;;;4.38;3.60;;;;;;;7.04;100.00;96088.16;5033449;28;20104;-75
2021/01/23 08:48:59;;;;;;;5.10;3.33;;;;;;;7.06;100.00;96105.75;5042473;28;20039;-90
2021/01/23 08:51:24;;;;;;;4.30;3.33;;;;;;;7.14;100.00;96106.88;5037152;28;20709;-86
2021/01/23 08:53:50;;;;;;;3.53;2.90;;;;;;;7.09;100.00;96098.88;5055055;28;20029;-84
2021/01/23 08:56:16;;;;;;;5.88;3.60;;;;;;;7.13;100.00;96106.09;5010598;28;20029;-74
2021/01/23 08:58:41;;;;;;;3.90;2.78;;;;;;;7.16;100.00;96115.53;5033266;28;20026;-74
2021/01/23 09:01:07;;;;;;;6.80;3.03;;;;;;;7.21;100.00;96118.06;5030160;28;20034;-76
2021/01/23 09:03:33;;;;;;;3.25;2.67;;;;;;;7.18;100.00;96119.50;5032687;28;20040;-75
2021/01/23 09:05:59;;;;;;;4.55;3.13;;;;;;;7.20;100.00;96113.78;5035465;28;20072;-78
2021/01/23 09:08:24;;;;;;;2.90;2.55;;;;;;;7.24;100.00;96118.22;5033372;28;20026;-75
2021/01/23 09:10:50;;;;;;;3.97;3.17;;;;;;;7.29;100.00;96114.56;5032780;28;20084;-75
2021/01/23 09:13:15;;;;;;;11.80;3.13;;;;;;;7.30;100.00;96127.06;5033142;28;20094;-74
2021/01/23 09:15:40;;;;;;;7.32;3.33;;;;;;;7.29;100.00;96134.41;5015484;28;20023;-74
2021/01/23 09:18:06;;;;;;;8.90;3.53;;;;;;;7.38;100.00;96140.66;5032572;28;20542;-75
2021/01/23 09:20:32;;;;;;;4.60;3.25;;;;;;;7.39;100.00;96155.81;5032925;28;20033;-74
2021/01/23 09:22:57;;;;;;;11.70;6.88;;;;;;;7.50;100.00;96157.13;5026634;28;20038;-74
2021/01/23 09:25:23;;;;;;;5.68;2.72;;;;;;;7.44;100.00;96161.13;4995703;28;20467;-76
2021/01/23 09:27:48;;;;;;;4.72;4.10;;;;;;;7.44;100.00;96163.84;5016060;28;20087;-74
2021/01/23 09:30:15;;;;;;;10.00;3.70;;;;;;;7.36;100.00;96153.75;5031246;28;20083;-75
2021/01/23 09:32:41;;;;;;;10.82;3.92;;;;;;;7.20;100.00;96135.53;5030934;28;20046;-76
2021/01/23 09:35:07;;;;;;;4.70;3.33;;;;;;;7.37;100.00;96158.06;5014481;28;20048;-75
2021/01/23 09:37:33;;;;;;;6.88;3.80;;;;;;;7.25;100.00;96144.31;5031857;28;20037;-84
2021/01/23 09:40:00;;;;;;;6.43;3.30;;;;;;;7.38;100.00;96165.13;5015425;28;20100;-85
2021/01/23 09:42:25;;;;;;;5.90;3.35;;;;;;;7.31;100.00;96144.94;5012750;28;20514;-81
2021/01/23 09:44:51;;;;;;;3.53;2.97;;;;;;;7.41;100.00;96159.03;5011759;28;20008;-78
2021/01/23 09:47:17;;;;;;;8.05;3.95;;;;;;;7.45;100.00;96154.59;5029320;28;20033;-76
2021/01/23 09:49:42;;;;;;;8.38;4.13;;;;;;;7.59;100.00;96157.13;5029505;28;20029;-74
2021/01/23 09:52:08;;;;;;;8.55;4.25;;;;;;;7.68;100.00;96159.84;5011512;28;20029;-79
2021/01/23 09:54:33;;;;;;;7.70;4.50;;;;;;;7.62;100.00;96161.13;5027714;28;20025;-74
2021/01/23 09:57:02;;;;;;;6.80;5.65;;;;;;;7.70;100.00;96166.56;5011514;28;20033;-76
2021/01/23 09:59:28;;;;;;;6.70;4.82;;;;;;;7.59;100.00;96173.44;5028316;28;20502;-75
2021/01/23 10:01:54;;;;;;;9.20;3.17;;;;;;;7.48;100.00;96167.53;5028922;28;20061;-76
2021/01/23 10:04:19;;;;;;;4.07;2.47;;;;;;;7.37;100.00;96179.03;5029640;28;20060;-76
2021/01/23 10:06:44;;;;;;;4.85;1.77;;;;;;;7.52;100.00;96178.56;5011592;28;20096;-76
2021/01/23 10:09:10;;;;;;;2.00;1.15;;;;;;;7.40;99.99;96181.13;5028907;28;20429;-75
2021/01/23 10:11:35;;;;;;;2.47;1.23;;;;;;;7.19;100.00;96156.47;5011995;28;20033;-75
2021/01/23 10:14:03;;;;;;;1.45;1.33;;;;;;;7.26;100.00;96156.81;5010106;28;20041;-75
2021/01/23 10:16:46;;;;;;;1.35;1.25;;;;;;;7.22;100.00;96174.06;5028629;28;20025;-74
2021/01/23 10:19:17;;;;;;;20.20;2.28;;;;;;;7.34;100.00;96177.75;5011436;28;20174;-74
2021/01/23 10:21:51;;;;;;;7.70;1.48;;;;;;;7.40;100.00;96167.50;5012471;28;20029;-76
2021/01/23 10:24:16;;;;;;;1.60;1.08;;;;;;;7.71;100.00;96191.84;5027145;28;20018;-76
2021/01/23 10:26:45;;;;;;;1.20;0.88;;;;;;;7.58;99.55;96201.75;5011594;28;20036;-74
2021/01/23 10:29:13;;;;;;;12.05;2.05;;;;;;;7.68;99.98;96208.81;5011891;28;20104;-75
2021/01/23 10:31:42;;;;;;;5.85;1.67;;;;;;;7.20;100.00;96171.66;5029131;28;20026;-75
2021/01/23 10:34:07;;;;;;;2.38;1.45;;;;;;;7.20;100.00;96184.47;5030744;28;20530;-75
2021/01/23 10:36:36;;;;;;;4.53;3.03;;;;;;;7.41;100.00;96205.28;5030012;28;20030;-77
2021/01/23 10:39:04;;;;;;;9.07;2.25;;;;;;;7.11;100.00;96162.66;5011652;28;20021;-75
2021/01/23 10:41:30;;;;;;;3.58;2.03;;;;;;;7.29;100.00;96183.34;5008966;28;20037;-76
2021/01/23 10:43:55;;;;;;;3.55;2.08;;;;;;;7.27;100.00;96185.56;5011358;28;20087;-75
2021/01/23 10:46:21;;;;;;;2.60;1.65;;;;;;;7.32;98.91;96180.00;5031253;28;20025;-76
2021/01/23 10:48:46;;;;;;;7.78;2.85;;;;;;;7.26;100.00;96185.91;5009833;28;20120;-75
2021/01/23 10:51:12;;;;;;;3.22;2.22;;;;;;;6.96;100.00;96163.94;5012992;28;20475;-77
2021/01/23 10:53:38;;;;;;;2.47;1.73;;;;;;;6.78;100.00;96183.22;5013680;28;20034;-88
2021/01/23 10:56:05;;;;;;;4.60;2.00;;;;;;;6.80;100.00;96180.97;4978598;28;20026;-81
2021/01/23 10:58:30;;;;;;;4.35;2.00;;;;;;;7.05;100.00;96191.13;5000434;28;20414;-86
2021/01/23 11:00:56;;;;;;;5.13;2.05;;;;;;;6.88;100.00;96199.25;5013627;28;20037;-85
2021/01/23 11:03:29;;;;;;;4.20;1.70;;;;;;;6.62;100.00;96226.31;5032119;28;20013;-75
2021/01/23 11:05:55;;;;;;;1.20;1.10;;;;;;;6.79;100.00;96187.53;5033541;28;20093;-77
2021/01/23 11:08:21;;;;;;;2.67;1.77;;;;;;;6.84;100.00;96187.38;5032698;28;20021;-78
2021/01/23 11:13:54;;;;;;;2.50;1.33;;;;;;;6.93;100.00;96199.09;5025258;28;20029;-84
2021/01/23 11:16:34;;;;;;;2.60;2.05;;;;;;;6.80;100.00;96179.06;5035457;28;20784;-85
2021/01/23 11:19:21;;;;;;;2.17;1.63;;;;;;;6.75;97.55;96164.81;5013537;28;20029;-78
2021/01/23 11:21:47;;;;;;;1.10;0.82;;;;;;;6.97;98.75;96181.03;5011518;28;20488;-76
2021/01/23 11:24:15;;;;;;;2.65;1.58;;;;;;;6.91;98.67;96149.69;5030598;28;20100;-77
2021/01/23 11:26:47;;;;;;;2.83;2.22;;;;;;;7.23;97.69;96181.91;5034805;28;20060;-89
2021/01/23 11:29:29;;;;;;;4.13;1.88;;;;;;;7.28;97.41;96162.72;5035161;28;20036;-88
2021/01/23 11:32:10;;;;;;;2.90;1.75;;;;;;;7.53;97.47;96199.22;5050266;28;20049;-86
2021/01/23 11:34:39;;;;;;;3.60;1.90;;;;;;;7.23;97.04;96173.75;5034806;28;20108;-82
2021/01/23 11:37:35;;;;;;;2.92;1.92;;;;;;;7.45;97.93;96200.00;5018405;28;20033;-88
2021/01/23 11:40:02;;;;;;;6.55;1.50;;;;;;;7.23;96.29;96181.09;5015418;28;20029;-86
2021/01/23 11:42:28;;;;;;;3.90;2.20;;;;;;;7.48;98.04;96172.97;5039547;28;20401;-91
2021/01/23 11:45:21;;;;;;;6.63;2.42;;;;;;;7.36;95.04;96129.28;5022772;28;20116;-90